Time;durP1;ratioP1;P1;durP2;ratioP2;P2;SDS_P1;SDS_P2;PMS_P1;PMS_P2;Temp;Humidity;BMP_temperature;BMP_pressure;BME280_temperature;BME280_humidity;BME280_pressure;Samples;Min_cycle;Max_cycle;Signal;HPM_P1;HPM_P2
2023/01/17 00:01:29;;;;;;;6.10;2.93;;;-0.20;99.90;;;;;;5071592;28;20173;-59
2023/01/17 00:12:08;;;;;;;14.60;4.13;;;-0.40;99.90;;;;;;5071833;28;20192;-59
2023/01/17 00:14:33;;;;;;;9.87;3.97;;;-0.70;99.90;;;;;;5071557;28;20171;-59
2023/01/17 00:17:00;;;;;;;10.97;4.03;;;-0.30;99.90;;;;;;5071160;28;20180;-59
2023/01/17 01:34:33;;;;;;;18.70;6.80;;;-1.00;99.90;;;;;;5067969;28;20249;-56
2023/01/17 01:36:59;;;;;;;15.00;6.17;;;-0.90;99.90;;;;;;5069999;28;20641;-58
2023/01/17 01:39:24;;;;;;;15.57;7.10;;;-0.90;99.90;;;;;;5070053;28;20197;-59
2023/01/17 01:41:50;;;;;;;12.70;6.20;;;-0.70;99.90;;;;;;5070351;28;20263;-59
2023/01/17 01:44:48;;;;;;;16.23;7.33;;;-0.90;99.90;;;;;;5070380;28;20177;-59
2023/01/17 01:47:29;;;;;;;21.20;9.13;;;-0.80;99.90;;;;;;5070291;28;20171;-59
2023/01/17 01:49:56;;;;;;;25.67;9.73;;;-0.70;99.90;;;;;;5070189;28;20264;-58
2023/01/17 01:52:24;;;;;;;18.83;7.67;;;-0.70;99.90;;;;;;5070184;28;20275;-59
2023/01/17 01:55:01;;;;;;;14.43;7.07;;;-0.70;99.90;;;;;;5070105;28;20204;-58
2023/01/17 01:57:31;;;;;;;14.93;7.27;;;-0.90;99.90;;;;;;5070156;28;20171;-58
2023/01/17 02:00:01;;;;;;;18.20;7.17;;;-1.00;99.90;;;;;;5062274;28;20293;-59
2023/01/17 02:02:30;;;;;;;18.33;7.17;;;-1.00;99.90;;;;;;5070091;28;20165;-58
2023/01/17 02:04:58;;;;;;;18.13;8.43;;;-1.10;99.90;;;;;;5069965;28;20202;-58
2023/01/17 02:07:31;;;;;;;25.37;8.23;;;-1.00;99.90;;;;;;5065233;28;20174;-58
2023/01/17 02:09:57;;;;;;;21.47;8.80;;;-1.20;99.90;;;;;;5069842;28;20190;-58
2023/01/17 02:12:24;;;;;;;20.10;8.60;;;-1.30;99.90;;;;;;5068425;28;20187;-57
2023/01/17 02:14:50;;;;;;;17.70;7.87;;;-1.10;99.90;;;;;;5069515;28;20196;-59
2023/01/17 02:17:24;;;;;;;17.43;7.23;;;-1.20;99.90;;;;;;5071101;28;20169;-58
2023/01/17 02:20:18;;;;;;;14.40;5.97;;;-1.20;99.90;;;;;;5073201;28;20184;-58
2023/01/17 02:22:59;;;;;;;14.23;6.50;;;-1.40;99.90;;;;;;5073542;28;20252;-58
2023/01/17 02:25:43;;;;;;;16.27;6.00;;;-1.40;99.90;;;;;;5058484;28;20204;-58
2023/01/17 02:28:24;;;;;;;15.33;5.53;;;-1.40;99.90;;;;;;5073443;28;20182;-58
2023/01/17 02:30:58;;;;;;;15.17;5.77;;;-1.60;99.90;;;;;;5073110;28;20180;-58
2023/01/17 02:33:28;;;;;;;14.87;5.83;;;-1.50;99.90;;;;;;5072884;28;20169;-58
2023/01/17 02:35:57;;;;;;;20.53;6.83;;;-1.40;99.90;;;;;;5072630;28;20658;-58
2023/01/17 02:38:50;;;;;;;17.87;6.67;;;-1.50;99.90;;;;;;5072963;28;20187;-58
2023/01/17 02:41:23;;;;;;;18.77;6.73;;;-1.00;99.90;;;;;;5064238;28;20200;-58
2023/01/17 02:43:51;;;;;;;12.93;6.30;;;-1.40;99.90;;;;;;5073045;28;20176;-57
2023/01/17 02:46:17;;;;;;;17.13;6.23;;;-1.40;99.90;;;;;;5072935;28;20543;-57
2023/01/17 02:48:44;;;;;;;14.70;6.67;;;-1.30;99.90;;;;;;5073019;28;20609;-57
2023/01/17 02:51:21;;;;;;;14.67;6.33;;;-1.30;99.90;;;;;;5073055;28;20587;-57
2023/01/17 02:54:02;;;;;;;22.67;6.97;;;-1.30;99.90;;;;;;5072804;28;20184;-57
2023/01/17 02:56:50;;;;;;;15.90;7.27;;;-1.20;99.90;;;;;;5066292;28;20194;-57
2023/01/17 02:59:41;;;;;;;17.13;7.27;;;-1.20;99.90;;;;;;5072870;28;20248;-57
2023/01/17 03:02:53;;;;;;;14.27;6.63;;;-1.20;99.90;;;;;;5072826;28;20163;-57
2023/01/17 03:05:31;;;;;;;16.17;7.00;;;-1.20;99.90;;;;;;5061892;28;20227;-57
2023/01/17 03:07:59;;;;;;;15.77;6.80;;;-1.30;99.90;;;;;;5072404;28;20165;-57
2023/01/17 03:10:24;;;;;;;18.40;7.33;;;-1.30;99.90;;;;;;5072580;28;20181;-57
2023/01/17 03:12:57;;;;;;;17.00;6.67;;;-1.40;99.90;;;;;;5072516;28;20179;-57
2023/01/17 03:15:22;;;;;;;14.77;6.33;;;-1.50;99.90;;;;;;5072045;28;20173;-57
2023/01/17 03:17:51;;;;;;;12.97;6.10;;;-1.40;99.90;;;;;;5071871;28;20323;-57
2023/01/17 03:20:17;;;;;;;15.67;7.00;;;-1.40;99.90;;;;;;5072118;28;20172;-57
2023/01/17 03:22:43;;;;;;;24.50;6.80;;;-1.50;99.90;;;;;;5072311;28;20191;-58
2023/01/17 03:25:09;;;;;;;15.90;7.43;;;-1.40;99.90;;;;;;5071653;28;20645;-57
2023/01/17 03:27:34;;;;;;;20.23;7.27;;;-1.30;99.90;;;;;;5070638;28;20223;-58
2023/01/17 03:30:00;;;;;;;19.90;7.33;;;-1.40;99.90;;;;;;5070766;28;20547;-58
2023/01/17 03:32:26;;;;;;;15.17;7.73;;;-1.40;99.90;;;;;;5071714;28;20187;-58
2023/01/17 03:34:52;;;;;;;20.67;7.60;;;-1.30;99.90;;;;;;5071964;28;20696;-58
2023/01/17 03:37:18;;;;;;;19.30;7.40;;;-1.30;99.90;;;;;;5071696;28;20184;-58
2023/01/17 03:39:43;;;;;;;18.27;7.70;;;-1.40;99.90;;;;;;5069942;28;20317;-58
2023/01/17 03:42:09;;;;;;;15.93;7.03;;;-1.30;99.90;;;;;;5071391;28;20188;-58
2023/01/17 03:44:34;;;;;;;17.93;7.90;;;-1.30;99.90;;;;;;5071306;28;20208;-58
2023/01/17 03:47:00;;;;;;;18.93;7.17;;;-1.30;99.90;;;;;;5071767;28;20270;-59
2023/01/17 03:49:26;;;;;;;15.97;7.37;;;-1.40;99.90;;;;;;5067932;28;20192;-59
2023/01/17 03:51:51;;;;;;;15.23;7.00;;;-1.40;99.90;;;;;;5067981;28;20189;-59
2023/01/17 03:54:17;;;;;;;14.93;6.47;;;-1.50;99.90;;;;;;5071807;28;20181;-59
2023/01/17 03:56:43;;;;;;;13.53;6.20;;;;;;;;;;5071665;28;20192;-59
2023/01/17 03:59:09;;;;;;;19.83;6.70;;;-1.50;99.90;;;;;;5071809;28;20176;-59
2023/01/17 04:01:35;;;;;;;18.93;7.53;;;-1.40;99.90;;;;;;5071551;28;20180;-59
2023/01/17 04:04:00;;;;;;;17.07;6.87;;;-1.50;99.90;;;;;;5071548;28;20176;-59
2023/01/17 04:06:27;;;;;;;20.03;6.97;;;-1.50;99.90;;;;;;5071592;28;20208;-59
2023/01/17 04:08:53;;;;;;;14.07;5.63;;;-1.70;99.90;;;;;;5070220;28;20181;-59
2023/01/17 04:11:19;;;;;;;14.67;6.17;;;-1.60;99.90;;;;;;5071434;28;20188;-59
2023/01/17 04:13:44;;;;;;;15.27;6.47;;;-1.70;99.90;;;;;;5071031;28;20177;-59
2023/01/17 04:16:16;;;;;;;16.53;5.83;;;-1.70;99.90;;;;;;5070935;28;20205;-59
2023/01/17 04:18:43;;;;;;;11.03;5.47;;;-1.80;99.90;;;;;;5070763;28;20224;-59
2023/01/17 04:21:09;;;;;;;13.60;5.60;;;-2.00;99.90;;;;;;5070993;28;20192;-59
2023/01/17 04:23:34;;;;;;;16.97;6.13;;;-2.00;99.90;;;;;;5071150;28;20177;-59
2023/01/17 04:26:02;;;;;;;16.47;6.50;;;-2.00;99.90;;;;;;5070791;28;20692;-59
2023/01/17 04:28:28;;;;;;;17.03;6.37;;;;;;;;;;5070974;28;20184;-59
2023/01/17 04:30:57;;;;;;;14.27;6.27;;;-1.90;99.90;;;;;;5070756;28;20195;-59
2023/01/17 04:33:23;;;;;;;15.03;6.23;;;-1.90;99.90;;;;;;5070857;28;20238;-59
2023/01/17 04:35:49;;;;;;;15.33;5.83;;;-1.70;99.90;;;;;;5070779;28;20169;-58
2023/01/17 04:38:14;;;;;;;16.03;6.37;;;-2.00;99.90;;;;;;5070659;28;20186;-58
2023/01/17 04:40:40;;;;;;;15.70;6.73;;;-1.80;99.90;;;;;;5069543;28;20226;-58
2023/01/17 04:43:05;;;;;;;20.43;6.93;;;-1.80;99.90;;;;;;5070734;28;20683;-58
2023/01/17 04:45:31;;;;;;;17.77;6.17;;;-1.30;99.90;;;;;;5062951;28;20220;-58
2023/01/17 04:48:02;;;;;;;12.27;5.77;;;-1.70;99.90;;;;;;5070638;28;20218;-58
2023/01/17 04:50:28;;;;;;;13.47;6.20;;;-1.50;99.90;;;;;;5065087;28;20185;-58
2023/01/17 04:52:53;;;;;;;14.63;6.30;;;-1.60;99.90;;;;;;5052718;28;20176;-58
2023/01/17 04:55:19;;;;;;;19.03;6.50;;;-1.60;99.90;;;;;;5070620;28;20259;-58
2023/01/17 04:57:46;;;;;;;15.07;6.77;;;-1.60;99.90;;;;;;5070532;28;20198;-58
2023/01/17 05:00:12;;;;;;;16.27;6.67;;;-1.70;99.90;;;;;;5070577;28;20700;-58
2023/01/17 05:02:37;;;;;;;14.30;6.80;;;-1.60;99.90;;;;;;5054187;28;20172;-58
2023/01/17 05:05:03;;;;;;;16.83;7.17;;;-1.70;99.90;;;;;;5070301;28;20294;-58
2023/01/17 05:07:29;;;;;;;16.80;6.97;;;-1.60;99.90;;;;;;5070452;28;20179;-58
2023/01/17 05:09:55;;;;;;;15.87;6.83;;;;;;;;;;5070371;28;20180;-58
2023/01/17 05:12:21;;;;;;;18.37;6.90;;;-1.60;99.90;;;;;;5070283;28;20190;-58
2023/01/17 05:14:46;;;;;;;17.53;7.60;;;-1.60;99.90;;;;;;5070275;28;20192;-58
2023/01/17 05:17:12;;;;;;;16.53;7.83;;;-1.60;99.90;;;;;;5070043;28;20643;-58
2023/01/17 05:19:37;;;;;;;17.70;7.23;;;-1.60;99.90;;;;;;5070107;28;20221;-58
2023/01/17 05:22:13;;;;;;;17.80;6.47;;;;;;;;;;5070369;28;20590;-58
2023/01/17 05:24:39;;;;;;;22.10;6.83;;;-1.50;99.90;;;;;;5069937;28;20200;-59
2023/01/17 05:27:05;;;;;;;15.23;7.37;;;-1.50;99.90;;;;;;5050365;28;20587;-58
2023/01/17 05:29:31;;;;;;;19.10;7.43;;;-1.50;99.90;;;;;;5065036;28;20188;-58
2023/01/17 05:31:56;;;;;;;18.30;6.60;;;-1.60;99.90;;;;;;5070141;28;20168;-58
2023/01/17 05:34:22;;;;;;;17.87;7.20;;;-1.60;99.90;;;;;;5068920;28;20189;-58
2023/01/17 05:36:47;;;;;;;20.10;7.00;;;-1.50;99.90;;;;;;5069937;28;20184;-58
2023/01/17 05:39:13;;;;;;;15.23;6.90;;;-1.50;99.90;;;;;;5067659;28;20272;-58
2023/01/17 05:41:39;;;;;;;19.40;7.50;;;-1.50;99.90;;;;;;5064352;28;20239;-58
2023/01/17 05:44:04;;;;;;;22.00;7.40;;;-2.00;99.90;;;;;;5069880;28;20188;-58
2023/01/17 05:46:30;;;;;;;18.07;7.43;;;;;;;;;;5050388;28;20311;-58
2023/01/17 05:48:56;;;;;;;18.03;7.50;;;-1.50;99.90;;;;;;5070019;28;20172;-58
2023/01/17 05:51:21;;;;;;;18.57;7.57;;;-1.50;99.90;;;;;;5070429;28;20263;-58
2023/01/17 05:53:47;;;;;;;21.80;9.03;;;-1.50;99.90;;;;;;5074049;28;20180;-55
2023/01/17 05:56:13;;;;;;;19.73;8.20;;;-1.40;99.90;;;;;;5073951;28;20180;-59
2023/01/17 05:58:38;;;;;;;17.23;7.00;;;-1.60;99.90;;;;;;5074091;28;20627;-58
2023/01/17 06:01:04;;;;;;;16.57;6.73;;;-1.70;99.90;;;;;;5073606;28;20515;-58
2023/01/17 06:03:30;;;;;;;22.27;7.00;;;-1.70;99.90;;;;;;5055680;28;20227;-58
2023/01/17 06:05:55;;;;;;;15.47;6.20;;;-1.70;99.90;;;;;;5073197;28;20666;-58
2023/01/17 06:08:22;;;;;;;18.07;6.27;;;-1.80;99.90;;;;;;5073575;28;20180;-58
2023/01/17 06:10:48;;;;;;;18.13;7.57;;;-1.80;99.90;;;;;;5073854;28;20187;-58
2023/01/17 06:13:19;;;;;;;21.00;8.23;;;-1.90;99.90;;;;;;5073442;28;20267;-58
2023/01/17 06:15:45;;;;;;;18.87;6.80;;;-2.00;99.90;;;;;;5073196;28;20180;-59
2023/01/17 06:18:13;;;;;;;16.73;7.47;;;-1.80;99.90;;;;;;5073060;28;20733;-59
2023/01/17 06:20:39;;;;;;;16.33;6.87;;;-1.90;99.90;;;;;;5073302;28;20176;-58
2023/01/17 06:23:07;;;;;;;14.90;6.63;;;-2.00;99.90;;;;;;5073282;28;20211;-58
2023/01/17 06:25:37;;;;;;;13.13;6.37;;;-2.00;99.90;;;;;;5073237;28;20212;-59
2023/01/17 06:28:04;;;;;;;16.70;5.77;;;-2.00;99.90;;;;;;5072834;28;20585;-59
2023/01/17 06:30:29;;;;;;;17.10;6.43;;;-1.90;99.90;;;;;;5072506;28;20191;-59
2023/01/17 06:32:55;;;;;;;14.50;5.87;;;-1.90;99.90;;;;;;5073204;28;20169;-58
2023/01/17 06:35:21;;;;;;;16.63;6.13;;;-1.90;99.90;;;;;;5065236;28;20196;-59
2023/01/17 06:37:54;;;;;;;16.50;6.20;;;-1.90;99.90;;;;;;5073048;28;20173;-59
2023/01/17 06:40:27;;;;;;;12.80;5.60;;;-2.00;99.90;;;;;;5072446;28;20271;-59
2023/01/17 06:42:52;;;;;;;12.97;5.53;;;-1.90;99.90;;;;;;5067598;28;20205;-59
2023/01/17 06:45:19;;;;;;;11.17;5.73;;;-1.90;99.90;;;;;;5072772;28;20216;-58
2023/01/17 06:47:45;;;;;;;13.60;5.63;;;-1.90;99.90;;;;;;5072809;28;20266;-57
2023/01/17 06:50:13;;;;;;;21.70;6.57;;;-2.00;99.90;;;;;;5072959;28;20211;-58
2023/01/17 06:52:41;;;;;;;17.63;6.57;;;-2.00;99.90;;;;;;5072869;28;20275;-58
2023/01/17 06:55:08;;;;;;;20.10;6.80;;;-2.00;99.90;;;;;;5072811;28;20187;-58
2023/01/17 06:57:34;;;;;;;17.90;7.07;;;-2.00;99.90;;;;;;5072551;28;20276;-59
2023/01/17 07:00:00;;;;;;;13.43;6.20;;;-1.90;99.90;;;;;;5072617;28;20176;-58
2023/01/17 07:02:26;;;;;;;13.37;6.63;;;-2.00;99.90;;;;;;5071987;28;20544;-58
2023/01/17 07:04:51;;;;;;;23.00;7.10;;;-1.90;99.90;;;;;;5071599;28;20551;-58
2023/01/17 07:07:17;;;;;;;13.10;5.90;;;-1.90;99.90;;;;;;5072720;28;20172;-58
2023/01/17 07:09:42;;;;;;;14.57;6.37;;;-1.90;99.90;;;;;;5072183;28;20171;-58
2023/01/17 07:12:08;;;;;;;14.97;6.07;;;-1.80;99.90;;;;;;5072556;28;20222;-58
2023/01/17 07:14:34;;;;;;;11.70;5.57;;;-2.00;99.90;;;;;;5072119;28;20195;-58
2023/01/17 07:17:00;;;;;;;15.67;6.43;;;-1.80;99.90;;;;;;5072071;28;20263;-58
2023/01/17 07:19:25;;;;;;;15.17;5.63;;;-1.80;99.90;;;;;;5072039;28;20281;-58
2023/01/17 07:21:54;;;;;;;17.03;6.43;;;-1.90;99.90;;;;;;5072134;28;20193;-58
2023/01/17 07:24:20;;;;;;;13.90;6.00;;;-1.90;99.90;;;;;;5071739;28;20180;-58
2023/01/17 07:26:50;;;;;;;14.63;6.13;;;-1.90;99.90;;;;;;5072311;28;20247;-58
2023/01/17 07:29:16;;;;;;;18.13;6.43;;;-0.10;99.90;;;;;;5071267;28;20658;-58
2023/01/17 07:31:42;;;;;;;16.67;6.77;;;-1.90;99.90;;;;;;5065189;28;20204;-58
2023/01/17 07:34:08;;;;;;;14.83;6.50;;;;;;;;;;5071910;28;20635;-58
2023/01/17 07:36:34;;;;;;;16.10;6.30;;;-1.90;99.90;;;;;;5070619;28;20202;-58
2023/01/17 07:38:59;;;;;;;19.83;7.10;;;-1.90;99.90;;;;;;5071504;28;20251;-58
2023/01/17 07:41:25;;;;;;;17.30;7.67;;;-1.90;99.90;;;;;;5071775;28;20168;-58
2023/01/17 07:43:50;;;;;;;14.87;6.50;;;-2.10;99.90;;;;;;5071182;28;20226;-56
2023/01/17 07:46:16;;;;;;;16.47;6.70;;;-2.00;99.90;;;;;;5071564;28;20219;-56
2023/01/17 07:48:42;;;;;;;13.17;7.17;;;-2.00;99.90;;;;;;5053295;28;20306;-56
2023/01/17 07:51:08;;;;;;;18.00;6.73;;;-1.60;99.90;;;;;;5069141;28;20205;-56
2023/01/17 07:53:35;;;;;;;16.00;6.73;;;-1.90;99.90;;;;;;5070873;28;20177;-56
2023/01/17 07:56:03;;;;;;;16.37;6.67;;;-1.90;99.90;;;;;;5071687;28;20179;-56
2023/01/17 07:58:29;;;;;;;19.00;7.40;;;-1.90;99.90;;;;;;5071124;28;20184;-54
2023/01/17 08:01:04;;;;;;;16.57;6.93;;;-1.90;99.90;;;;;;5071528;28;20226;-56
2023/01/17 08:03:33;;;;;;;19.93;7.40;;;-1.90;99.90;;;;;;5070879;28;20259;-57
2023/01/17 08:06:00;;;;;;;16.77;7.40;;;-1.80;99.90;;;;;;5071324;28;20299;-57
2023/01/17 08:08:26;;;;;;;19.60;7.20;;;-2.00;99.90;;;;;;5071608;28;20172;-57
2023/01/17 08:10:52;;;;;;;17.20;6.83;;;-1.90;99.90;;;;;;5071317;28;20230;-57
2023/01/17 08:13:19;;;;;;;15.53;6.23;;;-1.80;99.90;;;;;;5071211;28;20261;-57
2023/01/17 08:15:50;;;;;;;12.10;6.10;;;-1.70;99.90;;;;;;5070493;28;20172;-56
2023/01/17 08:18:16;;;;;;;12.17;5.97;;;-1.70;99.90;;;;;;5050832;28;20240;-57
2023/01/17 08:20:43;;;;;;;16.43;6.83;;;-1.70;99.90;;;;;;5058388;28;20294;-57
2023/01/17 08:23:10;;;;;;;14.23;6.67;;;-1.80;99.90;;;;;;5070972;28;20176;-57
2023/01/17 08:25:35;;;;;;;16.50;7.20;;;-1.70;99.90;;;;;;5070807;28;20240;-56
2023/01/17 08:28:01;;;;;;;18.90;6.77;;;-2.00;99.90;;;;;;5069480;28;20208;-56
2023/01/17 08:30:27;;;;;;;14.97;6.33;;;-1.70;99.90;;;;;;5051473;28;20272;-56
2023/01/17 08:32:53;;;;;;;15.60;6.63;;;-1.50;99.90;;;;;;5069004;28;20200;-56
2023/01/17 08:35:19;;;;;;;17.77;7.33;;;-1.70;99.90;;;;;;5067472;28;20184;-56
2023/01/17 08:37:45;;;;;;;16.30;7.13;;;-1.60;99.90;;;;;;5070879;28;20162;-56
2023/01/17 08:40:15;;;;;;;21.93;7.07;;;-1.60;99.90;;;;;;5070767;28;20215;-57
2023/01/17 08:42:42;;;;;;;16.60;6.97;;;-1.60;99.90;;;;;;5070632;28;20173;-56
2023/01/17 08:45:10;;;;;;;13.70;6.30;;;-1.30;99.90;;;;;;5070620;28;20270;-56
2023/01/17 08:47:36;;;;;;;16.53;7.00;;;-1.50;99.90;;;;;;5070584;28;20176;-56
2023/01/17 08:50:05;;;;;;;17.27;7.17;;;-1.50;99.90;;;;;;5070669;28;20169;-56
2023/01/17 08:52:32;;;;;;;13.60;6.70;;;-1.30;99.90;;;;;;5070478;28;20269;-57
2023/01/17 08:54:58;;;;;;;20.00;7.77;;;-1.10;99.90;;;;;;5070917;28;20183;-57
2023/01/17 08:57:23;;;;;;;22.67;9.23;;;-1.30;99.90;;;;;;5069183;28;20655;-57
2023/01/17 08:59:49;;;;;;;22.33;9.50;;;-1.10;99.90;;;;;;5070878;28;20206;-57
2023/01/17 09:02:18;;;;;;;22.77;10.13;;;-1.20;99.90;;;;;;5070261;28;20621;-57
2023/01/17 09:04:45;;;;;;;22.77;8.40;;;-1.10;99.90;;;;;;5070393;28;20200;-56
2023/01/17 09:07:11;;;;;;;19.50;7.23;;;-0.90;99.90;;;;;;5070473;28;20187;-58
2023/01/17 09:09:36;;;;;;;15.10;6.97;;;-1.00;99.90;;;;;;5070515;28;20164;-58
2023/01/17 09:12:02;;;;;;;17.80;6.53;;;-1.00;99.90;;;;;;5070578;28;20196;-58
2023/01/17 09:14:28;;;;;;;19.03;6.60;;;-0.90;99.90;;;;;;5070237;28;20251;-55
2023/01/17 09:16:53;;;;;;;28.53;6.77;;;-0.80;99.90;;;;;;5070208;28;20179;-55
2023/01/17 09:19:19;;;;;;;14.50;6.17;;;-0.90;99.90;;;;;;5069962;28;20245;-56
2023/01/17 09:21:45;;;;;;;14.97;6.43;;;-0.90;99.90;;;;;;5069875;28;20259;-57
2023/01/17 09:24:11;;;;;;;15.30;6.00;;;-0.40;99.90;;;;;;5063592;28;20191;-56
2023/01/17 09:26:37;;;;;;;12.20;5.23;;;-0.50;99.90;;;;;;5071423;28;20674;-56
2023/01/17 09:29:03;;;;;;;14.43;4.70;;;-0.60;99.90;;;;;;5074631;28;20226;-56
2023/01/17 09:31:28;;;;;;;11.80;4.43;;;-0.30;99.90;;;;;;5072306;28;20681;-56
2023/01/17 09:33:56;;;;;;;11.03;4.37;;;-0.10;99.90;;;;;;5074209;28;20178;-56
2023/01/17 09:36:22;;;;;;;14.10;5.20;;;-0.10;99.90;;;;;;5041725;28;20171;-57
2023/01/17 09:38:49;;;;;;;16.13;5.30;;;0.00;99.90;;;;;;5073905;28;20179;-57
2023/01/17 09:41:20;;;;;;;11.53;4.60;;;-0.10;99.90;;;;;;5073635;28;20186;-56
2023/01/17 09:44:04;;;;;;;19.60;4.90;;;0.00;99.90;;;;;;5073879;28;20176;-56
2023/01/17 09:46:38;;;;;;;15.00;4.80;;;0.10;99.90;;;;;;5073897;28;20538;-57
2023/01/17 09:49:25;;;;;;;16.23;6.23;;;0.10;99.90;;;;;;5074119;28;20174;-57
2023/01/17 09:51:53;;;;;;;16.43;6.13;;;0.20;99.90;;;;;;5073958;28;20183;-56
2023/01/17 09:54:24;;;;;;;18.07;5.90;;;0.00;99.90;;;;;;5073755;28;20229;-55
2023/01/17 09:57:06;;;;;;;14.80;5.53;;;0.10;99.90;;;;;;5072878;28;20237;-55
2023/01/17 09:59:44;;;;;;;12.77;5.30;;;0.20;99.90;;;;;;5073806;28;20164;-55
2023/01/17 10:02:39;;;;;;;16.20;5.73;;;0.30;99.90;;;;;;5072569;28;20210;-55
2023/01/17 10:05:16;;;;;;;14.97;5.60;;;0.40;99.90;;;;;;5070129;28;20212;-55
2023/01/17 10:08:16;;;;;;;13.40;5.47;;;0.60;99.90;;;;;;5073483;28;20244;-55
2023/01/17 10:10:49;;;;;;;12.13;5.27;;;0.50;99.90;;;;;;5073532;28;20646;-55
2023/01/17 10:13:32;;;;;;;13.63;4.60;;;0.60;99.90;;;;;;5072185;28;20172;-53
2023/01/17 10:16:12;;;;;;;8.57;4.47;;;0.60;99.90;;;;;;5073348;28;20246;-53
2023/01/17 10:19:02;;;;;;;16.97;6.43;;;0.80;99.90;;;;;;5064287;28;20585;-54
2023/01/17 10:21:31;;;;;;;18.17;5.90;;;1.00;99.90;;;;;;5053057;28;20184;-54
2023/01/17 10:24:32;;;;;;;15.00;5.53;;;1.10;99.90;;;;;;5053465;28;20622;-54
2023/01/17 10:27:01;;;;;;;16.83;5.50;;;1.10;99.90;;;;;;5072318;28;20214;-54
2023/01/17 10:29:31;;;;;;;15.47;4.97;;;1.40;99.90;;;;;;5073262;28;20255;-54
2023/01/17 10:32:01;;;;;;;13.20;4.83;;;1.80;99.90;;;;;;5073157;28;20199;-54
2023/01/17 10:34:39;;;;;;;15.03;4.37;;;1.60;99.90;;;;;;5073299;28;20179;-54
2023/01/17 10:37:19;;;;;;;14.00;4.43;;;1.50;99.90;;;;;;5054588;28;20211;-54
2023/01/17 10:39:48;;;;;;;11.63;4.33;;;1.90;99.90;;;;;;5062173;28;20218;-54
2023/01/17 10:42:21;;;;;;;11.87;4.07;;;1.90;99.90;;;;;;5072010;28;20188;-54
2023/01/17 10:45:00;;;;;;;11.00;4.33;;;1.80;99.90;;;;;;5054423;28;20654;-54
2023/01/17 10:47:29;;;;;;;11.23;4.60;;;2.20;99.90;;;;;;5072948;28;20196;-54
2023/01/17 10:50:00;;;;;;;44.63;13.87;;;2.20;99.90;;;;;;5071867;28;20177;-54
2023/01/17 10:53:05;;;;;;;39.13;12.67;;;2.30;99.90;;;;;;5054361;28;20273;-54
2023/01/17 10:55:52;;;;;;;32.93;12.07;;;2.50;99.90;;;;;;5072657;28;20210;-54
2023/01/17 10:58:18;;;;;;;49.70;16.17;;;3.60;99.90;;;;;;5071312;28;20738;-55
2023/01/17 11:01:18;;;;;;;30.80;12.40;;;2.90;99.90;;;;;;5071542;28;20675;-54
2023/01/17 11:03:49;;;;;;;29.97;11.43;;;3.10;99.90;;;;;;5041383;28;20692;-54
2023/01/17 11:06:21;;;;;;;28.87;11.27;;;3.10;99.90;;;;;;5070085;28;20623;-55
2023/01/17 11:08:50;;;;;;;41.07;13.23;;;3.00;99.90;;;;;;5072427;28;20184;-55
2023/01/17 11:11:16;;;;;;;27.37;10.40;;;3.10;99.90;;;;;;5072215;28;20321;-54
2023/01/17 11:13:46;;;;;;;20.83;9.70;;;3.60;99.90;;;;;;5072491;28;20205;-54
2023/01/17 11:16:21;;;;;;;20.40;8.77;;;3.70;99.90;;;;;;5072525;28;20177;-54
2023/01/17 11:19:03;;;;;;;30.63;13.57;;;4.00;99.90;;;;;;5072058;28;20277;-55
2023/01/17 11:21:29;;;;;;;47.60;20.10;;;4.00;99.90;;;;;;5054262;28;20172;-54
2023/01/17 11:23:56;;;;;;;35.27;15.07;;;4.40;99.90;;;;;;5072683;28;20234;-55
2023/01/17 11:26:30;;;;;;;26.77;9.87;;;5.20;99.90;;;;;;5072248;28;20724;-55
2023/01/17 11:29:37;;;;;;;20.20;7.17;;;5.90;99.90;;;;;;5072096;28;20172;-55
2023/01/17 11:32:28;;;;;;;17.27;6.47;;;5.70;99.90;;;;;;4990388;28;20206;-54
2023/01/17 11:35:16;;;;;;;15.30;5.63;;;6.20;99.90;;;;;;5071988;28;20189;-55
2023/01/17 11:37:57;;;;;;;23.03;5.50;;;7.50;99.90;;;;;;5071973;28;20635;-55
2023/01/17 11:40:28;;;;;;;14.07;5.73;;;8.30;99.90;;;;;;5037285;28;20173;-55
2023/01/17 11:43:24;;;;;;;20.00;6.00;;;8.10;99.90;;;;;;5070576;28;20173;-55
2023/01/17 11:46:19;;;;;;;20.17;6.20;;;8.70;99.90;;;;;;5062939;28;20224;-56
2023/01/17 11:48:56;;;;;;;15.17;5.13;;;9.10;99.90;;;;;;5071389;28;20161;-57
2023/01/17 11:51:27;;;;;;;17.57;6.17;;;11.60;99.90;;;;;;5070855;28;20245;-57
2023/01/17 11:53:54;;;;;;;18.17;6.93;;;12.90;99.90;;;;;;5051802;28;20181;-57
2023/01/17 11:56:35;;;;;;;15.65;7.80;;;14.10;99.90;;;;;;5051899;28;20180;-57
2023/01/17 11:59:19;;;;;;;21.48;6.68;;;15.20;99.90;;;;;;5052496;28;20203;-57
2023/01/17 12:02:03;;;;;;;26.30;7.03;;;15.30;99.90;;;;;;5074003;28;20169;-56
2023/01/17 12:04:41;;;;;;;11.70;6.32;;;15.10;99.90;;;;;;5077990;28;20180;-56
2023/01/17 12:07:22;;;;;;;17.42;6.47;;;14.80;99.90;;;;;;5071258;28;20707;-56
2023/01/17 12:10:22;;;;;;;16.38;6.70;;;15.20;99.50;;;;;;5070493;28;20278;-56
2023/01/17 12:16:32;;;;;;;15.63;5.50;;;15.50;94.50;;;;;;5061948;28;20265;-57
2023/01/17 12:19:04;;;;;;;19.02;5.97;;;16.10;85.30;;;;;;5070827;28;20220;-56
2023/01/17 12:21:49;;;;;;;18.13;6.30;;;16.50;86.40;;;;;;5068981;28;20187;-56
2023/01/17 12:24:37;;;;;;;14.00;5.80;;;17.20;76.40;;;;;;5052427;28;20193;-57
2023/01/17 12:27:30;;;;;;;17.90;5.65;;;16.20;68.90;;;;;;5067870;28;20177;-57
2023/01/17 12:30:09;;;;;;;13.95;5.80;;;17.10;70.70;;;;;;5071038;28;20203;-56
2023/01/17 12:33:12;;;;;;;17.17;5.90;;;17.70;61.90;;;;;;5062580;28;20732;-56
2023/01/17 12:35:44;;;;;;;18.58;6.05;;;15.30;44.30;;;;;;5048981;28;20232;-56
2023/01/17 12:38:17;;;;;;;15.73;5.78;;;12.40;47.70;;;;;;5050897;28;20161;-56
2023/01/17 12:40:54;;;;;;;19.27;6.25;;;10.60;79.60;;;;;;5050624;28;20181;-56
2023/01/17 12:43:36;;;;;;;15.68;5.70;;;11.80;90.50;;;;;;5070565;28;20180;-56
2023/01/17 12:46:19;;;;;;;18.80;5.10;;;11.50;84.80;;;;;;5070718;28;20266;-56
2023/01/17 12:48:49;;;;;;;15.10;6.95;;;12.90;81.90;;;;;;5070003;28;20188;-56
2023/01/17 12:51:23;;;;;;;20.30;9.45;;;14.50;77.00;;;;;;5069473;28;20632;-56
2023/01/17 12:54:08;;;;;;;23.20;9.48;;;14.50;68.80;;;;;;5068941;28;20181;-56
2023/01/17 12:56:42;;;;;;;22.38;9.75;;;15.20;68.60;;;;;;5068574;28;20237;-56
2023/01/17 12:59:33;;;;;;;23.38;8.88;;;15.20;64.80;;;;;;5069332;28;20260;-56
2023/01/17 13:02:00;;;;;;;20.77;8.00;;;14.60;61.50;;;;;;5068302;28;20234;-57
2023/01/17 13:04:42;;;;;;;22.33;7.72;;;14.50;57.80;;;;;;5068965;28;20179;-57
2023/01/17 13:07:19;;;;;;;15.25;7.55;;;15.70;58.30;;;;;;5067821;28;20192;-57
2023/01/17 13:09:59;;;;;;;18.13;8.30;;;15.70;59.20;;;;;;5070215;28;20232;-57
2023/01/17 13:12:29;;;;;;;18.52;8.55;;;16.00;52.80;;;;;;5070371;28;20176;-57
2023/01/17 13:14:57;;;;;;;17.23;7.63;;;16.30;45.80;;;;;;5068930;28;20653;-57
2023/01/17 13:17:45;;;;;;;16.10;7.50;;;16.70;47.70;;;;;;5070042;28;20688;-57
2023/01/17 13:20:35;;;;;;;16.23;4.78;;;17.90;45.90;;;;;;5070455;28;20267;-57
2023/01/17 13:23:15;;;;;;;9.85;3.80;;;18.80;31.30;;;;;;5070240;28;20168;-58
2023/01/17 13:25:48;;;;;;;11.75;4.15;;;18.70;33.60;;;;;;5063509;28;20438;-57
2023/01/17 13:28:29;;;;;;;37.22;12.95;;;19.10;25.00;;;;;;5063507;28;20169;-57
2023/01/17 13:31:07;;;;;;;50.88;19.35;;;18.00;24.70;;;;;;5059814;28;20612;-57
2023/01/17 13:33:50;;;;;;;62.72;24.45;;;15.90;18.00;;;;;;5050205;28;20635;-57
2023/01/17 13:36:28;;;;;;;21.80;9.25;;;16.70;23.60;;;;;;5050162;28;20213;-57
2023/01/17 13:39:17;;;;;;;10.98;5.32;;;18.30;24.60;;;;;;5050203;28;20169;-57
2023/01/17 13:41:53;;;;;;;13.07;5.60;;;15.50;18.30;;;;;;5067513;28;20165;-57
2023/01/17 13:44:23;;;;;;;9.75;3.80;;;16.40;15.90;;;;;;5069974;28;20669;-57
2023/01/17 13:47:00;;;;;;;11.63;4.05;;;14.80;19.50;;;;;;5070363;28;20216;-57
2023/01/17 13:49:30;;;;;;;10.30;3.92;;;14.90;17.30;;;;;;5067424;28;20207;-56
2023/01/17 13:52:10;;;;;;;11.45;3.78;;;15.90;17.30;;;;;;5070219;28;20177;-57
2023/01/17 13:54:47;;;;;;;13.45;3.70;;;13.30;17.40;;;;;;5069839;28;20229;-57
2023/01/17 13:57:28;;;;;;;7.97;3.70;;;13.20;14.80;;;;;;5070208;28;20172;-57
2023/01/17 14:00:15;;;;;;;12.40;3.38;;;12.30;20.10;;;;;;5062843;28;20626;-57
2023/01/17 14:02:41;;;;;;;15.07;3.78;;;11.70;23.60;;;;;;5068878;28;20524;-57
2023/01/17 14:05:11;;;;;;;12.80;3.80;;;12.30;28.80;;;;;;5069418;28;20228;-57
2023/01/17 14:07:54;;;;;;;9.45;3.80;;;14.20;33.10;;;;;;5057471;28;20180;-57
2023/01/17 14:10:28;;;;;;;11.25;3.67;;;14.00;27.30;;;;;;5070027;28;20176;-56
2023/01/17 14:12:54;;;;;;;10.15;3.05;;;15.40;27.50;;;;;;5071120;28;20172;-57
2023/01/17 14:15:22;;;;;;;15.23;5.45;;;13.00;26.90;;;;;;5072558;28;20171;-57
2023/01/17 14:17:56;;;;;;;9.57;3.70;;;16.10;23.90;;;;;;5073139;28;20185;-57
2023/01/17 14:20:24;;;;;;;11.77;4.32;;;16.10;22.30;;;;;;5072673;28;20239;-57
2023/01/17 14:23:00;;;;;;;20.00;5.45;;;15.10;18.80;;;;;;5073376;28;20168;-56
2023/01/17 14:25:36;;;;;;;12.65;5.25;;;13.30;18.00;;;;;;5071448;28;20208;-57
2023/01/17 14:28:17;;;;;;;19.52;6.45;;;12.60;18.80;;;;;;5062903;28;20222;-57
2023/01/17 14:30:43;;;;;;;11.90;4.28;;;11.80;26.10;;;;;;5073390;28;20234;-57